createdAt,value
2023-02-17T00:01:40.702Z,9.52
2023-02-17T00:04:09.192Z,8.10
2023-02-17T00:06:37.421Z,7.22
2023-02-17T00:09:05.743Z,7.78
2023-02-17T00:11:34.338Z,6.82
2023-02-17T00:14:02.624Z,6.75
2023-02-17T00:16:31.232Z,5.95
2023-02-17T00:19:02.786Z,7.82
2023-02-17T00:21:33.341Z,8.85
2023-02-17T00:24:02.053Z,9.18
2023-02-17T00:26:30.584Z,7.35
2023-02-17T00:29:00.242Z,6.70
2023-02-17T00:31:28.692Z,7.05
2023-02-17T00:33:57.421Z,7.10
2023-02-17T00:36:28.653Z,9.68
2023-02-17T00:38:58.802Z,7.53
2023-02-17T00:41:28.556Z,8.10
2023-02-17T00:44:00.039Z,9.27
2023-02-17T00:46:28.768Z,8.55
2023-02-17T00:48:57.146Z,8.93
2023-02-17T00:51:27.862Z,8.57
2023-02-17T00:53:56.070Z,10.02
2023-02-17T00:56:24.452Z,10.18
2023-02-17T00:58:53.131Z,9.52
2023-02-17T01:01:21.445Z,13.00
2023-02-17T01:03:49.656Z,13.30
2023-02-17T01:06:25.131Z,13.25
2023-02-17T01:08:55.079Z,12.25
2023-02-17T01:11:26.452Z,10.00
2023-02-17T01:13:55.806Z,9.63
2023-02-17T01:16:26.661Z,8.80
2023-02-17T01:18:55.211Z,9.88
2023-02-17T01:21:25.030Z,7.65
2023-02-17T01:23:58.087Z,8.63
2023-02-17T01:26:27.973Z,7.22
2023-02-17T01:28:57.172Z,6.88
2023-02-17T01:31:28.112Z,7.53
2023-02-17T01:33:58.221Z,7.45
2023-02-17T01:36:26.671Z,6.90
2023-02-17T01:38:56.543Z,6.35
2023-02-17T01:41:27.803Z,7.47
2023-02-17T01:44:19.902Z,6.50
2023-02-17T01:46:50.249Z,7.25
2023-02-17T01:49:29.553Z,7.50
2023-02-17T01:52:02.994Z,6.93
2023-02-17T01:54:38.804Z,8.57
2023-02-17T01:57:07.593Z,6.80
2023-02-17T01:59:35.861Z,6.60
2023-02-17T02:02:06.734Z,8.75
2023-02-17T02:04:38.882Z,9.68
2023-02-17T02:07:11.789Z,10.23
2023-02-17T02:09:47.657Z,7.85
2023-02-17T02:12:21.091Z,7.80
2023-02-17T02:14:50.889Z,9.95
2023-02-17T02:17:29.142Z,10.38
2023-02-17T02:20:35.121Z,9.48
2023-02-17T02:23:27.772Z,11.70
2023-02-17T02:26:28.048Z,7.93
2023-02-17T02:29:24.033Z,10.43
2023-02-17T02:32:02.309Z,9.57
2023-02-17T02:34:35.508Z,11.90
2023-02-17T02:37:09.492Z,8.93
2023-02-17T02:39:44.345Z,10.40
2023-02-17T02:42:16.978Z,10.43
2023-02-17T02:44:45.440Z,11.93
2023-02-17T02:47:45.983Z,9.52
2023-02-17T02:50:18.771Z,11.90
2023-02-17T02:52:59.965Z,12.03
2023-02-17T02:55:39.926Z,12.57
2023-02-17T02:58:15.568Z,14.10
2023-02-17T03:00:54.318Z,16.10
2023-02-17T03:03:29.572Z,14.50
2023-02-17T03:06:05.933Z,12.65
2023-02-17T03:08:38.899Z,11.95
2023-02-17T03:11:08.176Z,11.97
2023-02-17T03:13:42.993Z,10.52
2023-02-17T03:16:15.011Z,12.07
2023-02-17T03:18:43.714Z,13.38
2023-02-17T03:21:17.823Z,13.43
2023-02-17T03:23:46.164Z,17.10
2023-02-17T03:26:14.449Z,12.68
2023-02-17T03:28:42.888Z,13.98
2023-02-17T03:31:11.457Z,15.35
2023-02-17T03:33:39.665Z,11.98
2023-02-17T03:36:08.875Z,14.50
2023-02-17T03:38:38.636Z,17.48
2023-02-17T03:41:07.049Z,15.75
2023-02-17T03:43:35.445Z,16.83
2023-02-17T03:46:04.056Z,14.32
2023-02-17T03:48:32.471Z,15.60
2023-02-17T03:51:00.870Z,14.98
2023-02-17T03:53:29.253Z,14.40
2023-02-17T03:55:58.862Z,13.30
2023-02-17T03:58:27.328Z,17.15
2023-02-17T04:00:55.865Z,17.33
2023-02-17T04:03:24.097Z,16.52
2023-02-17T04:05:52.805Z,15.85
2023-02-17T04:08:21.250Z,14.07
2023-02-17T04:10:53.588Z,13.98
2023-02-17T04:13:23.505Z,15.10
2023-02-17T04:15:52.206Z,15.75
2023-02-17T04:18:21.491Z,13.77
2023-02-17T04:20:51.210Z,15.82
2023-02-17T04:23:19.724Z,19.00
2023-02-17T04:25:48.808Z,14.73
2023-02-17T04:28:18.091Z,13.98
2023-02-17T04:30:49.154Z,17.05
2023-02-17T04:33:18.078Z,15.48
2023-02-17T04:35:46.741Z,13.25
2023-02-17T04:38:15.167Z,16.48
2023-02-17T04:40:44.185Z,17.33
2023-02-17T04:43:12.507Z,14.40
2023-02-17T04:45:40.800Z,13.52
2023-02-17T04:48:10.790Z,14.40
2023-02-17T04:50:39.050Z,15.27
2023-02-17T04:53:08.486Z,14.60
2023-02-17T04:55:36.777Z,16.05
2023-02-17T04:58:05.570Z,14.00
2023-02-17T05:00:33.852Z,12.85
2023-02-17T05:03:02.191Z,15.75
2023-02-17T05:05:31.907Z,13.80
2023-02-17T05:08:00.398Z,13.60
2023-02-17T05:10:28.955Z,13.13
2023-02-17T05:12:57.178Z,15.43
2023-02-17T05:15:25.623Z,13.45
2023-02-17T05:17:54.149Z,13.10
2023-02-17T05:20:22.636Z,12.43
2023-02-17T05:22:52.480Z,13.65
2023-02-17T05:25:20.727Z,12.77
2023-02-17T05:27:49.036Z,13.73
2023-02-17T05:30:17.908Z,10.50
2023-02-17T05:32:46.313Z,15.38
2023-02-17T05:35:14.569Z,14.63
2023-02-17T05:37:43.131Z,12.60
2023-02-17T05:40:13.272Z,13.85
2023-02-17T05:42:41.595Z,12.82
2023-02-17T05:45:10.379Z,12.30
2023-02-17T05:47:38.877Z,12.95
2023-02-17T05:50:08.444Z,11.68
2023-02-17T05:52:37.032Z,12.18
2023-02-17T05:55:06.024Z,11.57
2023-02-17T05:57:35.664Z,10.55
2023-02-17T06:00:04.678Z,11.73
2023-02-17T06:02:33.146Z,11.95
2023-02-17T06:05:01.420Z,11.35
2023-02-17T06:07:29.804Z,11.57
2023-02-17T06:09:58.570Z,11.77
2023-02-17T06:12:27.156Z,13.77
2023-02-17T06:14:56.808Z,11.30
2023-02-17T06:17:25.160Z,11.43
2023-02-17T06:19:53.416Z,13.98
2023-02-17T06:22:21.727Z,11.93
2023-02-17T06:24:49.897Z,12.63
2023-02-17T06:27:18.243Z,10.73
2023-02-17T06:29:46.497Z,10.73
2023-02-17T06:32:16.335Z,12.48
2023-02-17T06:34:44.534Z,12.45
2023-02-17T06:37:13.111Z,9.85
2023-02-17T06:39:41.590Z,9.10
2023-02-17T06:42:09.959Z,12.43
2023-02-17T06:44:38.286Z,9.35
2023-02-17T06:47:06.600Z,12.70
2023-02-17T06:49:36.288Z,11.20
2023-02-17T06:52:04.660Z,9.75
2023-02-17T06:54:32.832Z,11.73
2023-02-17T06:57:01.031Z,11.48
2023-02-17T06:59:29.478Z,9.85
2023-02-17T07:01:57.848Z,9.75
2023-02-17T07:04:26.691Z,11.13
2023-02-17T07:06:56.446Z,11.15
2023-02-17T07:09:24.754Z,10.35
2023-02-17T07:11:52.973Z,10.43
2023-02-17T07:14:22.516Z,8.70
2023-02-17T07:16:52.302Z,8.95
2023-02-17T07:19:20.636Z,9.10
2023-02-17T07:21:49.066Z,9.40
2023-02-17T07:24:18.936Z,8.43
2023-02-17T07:26:47.130Z,8.40
2023-02-17T07:29:15.434Z,6.22
2023-02-17T07:31:43.867Z,6.35
2023-02-17T07:34:12.090Z,6.07
2023-02-17T07:36:40.581Z,5.82
2023-02-17T07:39:09.131Z,5.00
2023-02-17T07:41:38.769Z,4.70
2023-02-17T07:44:07.462Z,3.70
2023-02-17T07:46:35.845Z,4.72
2023-02-17T07:49:04.051Z,4.00
2023-02-17T07:51:32.328Z,2.90
2023-02-17T07:54:02.316Z,2.90
2023-02-17T07:56:30.940Z,4.80
2023-02-17T07:59:00.602Z,3.72
2023-02-17T08:01:29.121Z,3.35
2023-02-17T08:03:58.178Z,3.40
2023-02-17T08:06:28.225Z,3.95
2023-02-17T08:09:14.652Z,2.90
2023-02-17T08:12:01.041Z,3.28
2023-02-17T08:14:33.395Z,4.45
2023-02-17T08:17:02.096Z,2.40
2023-02-17T08:19:46.544Z,2.67
2023-02-17T08:22:15.880Z,2.13
2023-02-17T08:24:44.288Z,3.15
2023-02-17T08:27:13.405Z,2.25
2023-02-17T08:29:43.696Z,2.42
2023-02-17T08:32:12.677Z,3.22
2023-02-17T08:34:40.848Z,3.47
2023-02-17T08:37:09.929Z,3.45
2023-02-17T08:39:38.555Z,3.58
2023-02-17T08:42:07.223Z,2.92
2023-02-17T08:44:37.649Z,3.10
2023-02-17T08:47:08.918Z,2.28
2023-02-17T08:49:37.468Z,3.60
2023-02-17T08:52:06.634Z,2.65
2023-02-17T08:54:35.211Z,1.67
2023-02-17T08:57:03.790Z,1.75
2023-02-17T08:59:32.154Z,1.67
2023-02-17T09:02:00.523Z,1.67
2023-02-17T09:04:30.440Z,1.98
2023-02-17T09:06:59.037Z,1.80
2023-02-17T09:09:29.217Z,1.88
2023-02-17T09:11:58.832Z,2.00
2023-02-17T09:14:29.213Z,2.50
2023-02-17T09:16:57.932Z,2.20
2023-02-17T09:19:26.844Z,3.08
2023-02-17T09:21:57.374Z,1.80
2023-02-17T09:24:25.808Z,2.30
2023-02-17T09:26:54.045Z,2.53
2023-02-17T09:29:22.474Z,2.95
2023-02-17T09:31:51.148Z,3.55
2023-02-17T09:34:19.506Z,3.63
2023-02-17T09:36:48.164Z,2.25
2023-02-17T09:39:18.070Z,4.13
2023-02-17T09:41:50.115Z,2.00
2023-02-17T09:44:22.858Z,1.48
2023-02-17T09:47:02.506Z,1.57
2023-02-17T09:49:38.906Z,1.95
2023-02-17T09:52:13.097Z,1.42
2023-02-17T09:54:55.250Z,2.35
2023-02-17T09:57:28.857Z,3.45
2023-02-17T10:02:33.588Z,1.58
2023-02-17T10:05:06.998Z,1.92
2023-02-17T10:07:41.014Z,1.77
2023-02-17T10:10:15.821Z,2.90
2023-02-17T10:12:48.566Z,1.85
2023-02-17T10:15:20.999Z,1.30
2023-02-17T10:17:55.273Z,1.38
2023-02-17T10:20:27.102Z,2.38
2023-02-17T10:23:01.295Z,1.77
2023-02-17T10:25:46.458Z,1.65
2023-02-17T10:28:20.492Z,1.25
2023-02-17T10:30:56.808Z,2.50
2023-02-17T10:33:32.814Z,2.53
2023-02-17T10:36:11.580Z,1.83
2023-02-17T10:38:50.828Z,2.60
2023-02-17T10:41:25.240Z,3.38
2023-02-17T10:43:54.837Z,2.08
2023-02-17T10:46:28.936Z,2.38
2023-02-17T10:48:59.162Z,4.65
2023-02-17T10:51:29.494Z,2.65
2023-02-17T10:54:04.280Z,3.60
2023-02-17T10:56:40.192Z,1.95
2023-02-17T10:59:15.777Z,3.20
2023-02-17T11:01:44.966Z,3.28
2023-02-17T11:04:14.317Z,1.95
2023-02-17T11:06:46.060Z,1.08
2023-02-17T11:09:23.415Z,1.80
2023-02-17T11:12:01.762Z,1.52
2023-02-17T11:14:32.379Z,2.17
2023-02-17T11:17:02.872Z,1.35
2023-02-17T11:19:34.049Z,2.10
2023-02-17T11:22:05.750Z,2.22
2023-02-17T11:24:36.361Z,1.50
2023-02-17T11:27:10.877Z,2.20
2023-02-17T11:29:39.529Z,2.53
2023-02-17T11:32:09.536Z,2.28
2023-02-17T11:34:40.560Z,3.22
2023-02-17T11:37:21.849Z,2.17
2023-02-17T11:39:53.718Z,2.60
2023-02-17T11:42:25.858Z,1.88
2023-02-17T11:44:56.821Z,3.95
2023-02-17T11:47:35.845Z,3.80
2023-02-17T11:50:31.723Z,2.35
2023-02-17T11:53:21.199Z,1.48
2023-02-17T11:56:08.081Z,1.58
2023-02-17T11:58:55.375Z,2.25
2023-02-17T12:01:40.442Z,2.20
2023-02-17T12:04:26.245Z,2.00
2023-02-17T12:07:08.074Z,3.45
2023-02-17T12:09:46.772Z,2.95
2023-02-17T12:12:23.451Z,3.45
2023-02-17T12:15:04.997Z,2.90
2023-02-17T12:17:47.886Z,2.45
2023-02-17T12:20:35.765Z,2.58
2023-02-17T12:23:25.855Z,2.00
2023-02-17T12:26:00.684Z,2.70
2023-02-17T12:28:43.485Z,2.63
2023-02-17T12:31:22.928Z,2.05
2023-02-17T12:33:58.553Z,1.95
2023-02-17T12:36:32.853Z,2.72
2023-02-17T12:39:05.426Z,2.60
2023-02-17T12:41:37.557Z,3.05
2023-02-17T12:44:13.529Z,2.53
2023-02-17T12:46:45.815Z,2.08
2023-02-17T12:49:18.035Z,1.35
2023-02-17T12:51:49.669Z,2.33
2023-02-17T12:54:24.439Z,2.38
2023-02-17T12:57:13.003Z,2.75
2023-02-17T12:59:43.119Z,1.88
2023-02-17T13:02:15.328Z,3.55
2023-02-17T13:04:46.643Z,1.83
2023-02-17T13:07:41.859Z,3.97
2023-02-17T13:10:21.366Z,2.80
2023-02-17T13:13:00.012Z,2.35
2023-02-17T13:15:33.390Z,7.00
2023-02-17T13:18:05.284Z,2.30
2023-02-17T13:20:53.436Z,4.53
2023-02-17T13:23:36.814Z,2.85
2023-02-17T13:26:33.308Z,2.05
2023-02-17T13:29:21.736Z,1.67
2023-02-17T13:31:53.930Z,1.17
2023-02-17T13:34:29.397Z,1.33
2023-02-17T13:36:58.992Z,2.17
2023-02-17T13:39:36.601Z,2.10
2023-02-17T13:42:05.868Z,2.95
2023-02-17T13:44:35.703Z,0.75
2023-02-17T13:47:07.749Z,0.88
2023-02-17T13:49:37.320Z,1.48
2023-02-17T13:52:17.240Z,1.80
2023-02-17T13:54:54.192Z,3.13
2023-02-17T13:57:27.440Z,2.90
2023-02-17T14:00:07.004Z,2.05
2023-02-17T14:02:38.672Z,2.28
2023-02-17T14:05:19.247Z,2.35
2023-02-17T14:07:50.725Z,2.47
2023-02-17T14:10:24.705Z,2.13
2023-02-17T14:12:54.193Z,1.55
2023-02-17T14:15:24.524Z,2.80
2023-02-17T14:17:53.423Z,2.78
2023-02-17T14:20:32.742Z,2.45
2023-02-17T14:23:04.610Z,4.60
2023-02-17T14:25:35.469Z,3.88
2023-02-17T14:28:04.718Z,2.95
2023-02-17T14:30:34.910Z,2.58
2023-02-17T14:33:06.465Z,3.17
2023-02-17T14:35:39.510Z,3.50
2023-02-17T14:38:21.298Z,2.35
2023-02-17T14:40:51.007Z,3.20
2023-02-17T14:43:19.175Z,3.33
2023-02-17T14:45:47.463Z,3.42
2023-02-17T14:48:15.735Z,3.25
2023-02-17T14:50:46.240Z,2.88
2023-02-17T14:53:19.362Z,2.40
2023-02-17T14:55:50.922Z,2.50
2023-02-17T14:58:21.329Z,4.50
2023-02-17T15:00:50.322Z,4.18
2023-02-17T15:03:19.280Z,3.55
2023-02-17T15:05:49.269Z,5.18
2023-02-17T15:08:19.938Z,4.95
2023-02-17T15:10:48.360Z,3.13
2023-02-17T15:13:19.115Z,5.22
2023-02-17T15:15:49.511Z,8.07
2023-02-17T15:18:19.852Z,5.07
2023-02-17T15:20:51.987Z,5.60
2023-02-17T15:23:22.064Z,4.93
2023-02-17T15:25:50.873Z,4.82
2023-02-17T15:28:21.760Z,6.38
2023-02-17T15:30:54.368Z,5.75
2023-02-17T15:33:24.586Z,6.38
2023-02-17T15:35:55.558Z,5.15
2023-02-17T15:38:25.136Z,8.32
2023-02-17T15:40:56.947Z,6.03
2023-02-17T15:43:28.937Z,5.97
2023-02-17T15:45:57.412Z,4.65
2023-02-17T15:48:29.891Z,7.72
2023-02-17T15:50:59.865Z,5.35
2023-02-17T15:53:32.444Z,6.97
2023-02-17T15:56:01.912Z,6.70
2023-02-17T15:58:30.814Z,5.43
2023-02-17T16:01:04.148Z,7.65
2023-02-17T16:03:32.498Z,7.82
2023-02-17T16:06:02.271Z,7.65
2023-02-17T16:08:30.638Z,9.57
2023-02-17T16:10:58.967Z,7.80
2023-02-17T16:13:28.461Z,6.78
2023-02-17T16:15:59.916Z,4.03
2023-02-17T16:18:28.332Z,6.03
2023-02-17T16:20:56.684Z,5.65
2023-02-17T16:23:26.384Z,8.88
2023-02-17T16:25:54.931Z,5.22
2023-02-17T16:28:24.008Z,7.05
2023-02-17T16:30:52.433Z,4.88
2023-02-17T16:33:20.722Z,6.55
2023-02-17T16:35:51.759Z,7.50
2023-02-17T16:38:23.486Z,7.65
2023-02-17T16:40:54.847Z,7.95
2023-02-17T16:43:25.538Z,9.35
2023-02-17T16:45:56.219Z,9.00
2023-02-17T16:48:25.620Z,8.13
2023-02-17T16:50:54.112Z,7.53
2023-02-17T16:53:22.330Z,8.70
2023-02-17T16:55:50.832Z,9.55
2023-02-17T16:58:23.123Z,7.88
2023-02-17T17:00:53.594Z,8.95
2023-02-17T17:03:23.234Z,8.02
2023-02-17T17:05:52.531Z,7.18
2023-02-17T17:08:22.143Z,10.82
2023-02-17T17:10:50.688Z,9.55
2023-02-17T17:13:20.431Z,8.93
2023-02-17T17:15:48.990Z,9.38
2023-02-17T17:18:21.287Z,10.57
2023-02-17T17:20:50.172Z,10.27
2023-02-17T17:23:19.168Z,10.60
2023-02-17T17:25:48.775Z,12.07
2023-02-17T17:28:19.866Z,10.00
2023-02-17T17:30:48.512Z,14.95
2023-02-17T17:33:17.328Z,13.27
2023-02-17T17:35:45.810Z,10.57
2023-02-17T17:38:15.797Z,9.88
2023-02-17T17:40:53.651Z,11.15
2023-02-17T17:43:24.325Z,11.07
2023-02-17T17:45:53.123Z,10.70
2023-02-17T17:48:21.482Z,11.13
2023-02-17T17:50:50.655Z,11.70
2023-02-17T17:53:19.010Z,13.18
2023-02-17T17:55:48.663Z,13.75
2023-02-17T17:58:17.362Z,14.98
2023-02-17T18:00:47.018Z,15.20
2023-02-17T18:03:15.557Z,16.15
2023-02-17T18:05:43.829Z,14.68
2023-02-17T18:08:12.542Z,14.43
2023-02-17T18:10:42.063Z,12.80
2023-02-17T18:13:13.218Z,13.77
2023-02-17T18:15:42.309Z,13.50
2023-02-17T18:18:13.076Z,15.35
2023-02-17T18:20:41.366Z,14.60
2023-02-17T18:23:09.766Z,12.77
2023-02-17T18:25:38.501Z,14.95
2023-02-17T18:28:06.832Z,14.40
2023-02-17T18:30:35.412Z,12.00
2023-02-17T18:33:04.008Z,14.20
2023-02-17T18:35:37.181Z,12.70
2023-02-17T18:38:05.642Z,14.65
2023-02-17T18:40:33.904Z,12.38
2023-02-17T18:43:02.239Z,12.23
2023-02-17T18:45:30.697Z,11.27
2023-02-17T18:47:58.999Z,13.82
2023-02-17T18:50:27.506Z,11.38
2023-02-17T18:52:57.499Z,13.02
2023-02-17T18:55:25.722Z,11.55
2023-02-17T18:57:54.115Z,13.93
2023-02-17T19:00:24.391Z,13.52
2023-02-17T19:02:53.134Z,14.40
2023-02-17T19:05:21.593Z,14.80
2023-02-17T19:07:50.201Z,12.63
2023-02-17T19:10:20.518Z,12.70
2023-02-17T19:12:48.770Z,14.93
2023-02-17T19:15:20.798Z,13.48
2023-02-17T19:17:51.115Z,13.63
2023-02-17T19:20:19.653Z,11.65
2023-02-17T19:22:47.880Z,13.48
2023-02-17T19:25:16.296Z,13.95
2023-02-17T19:27:46.097Z,11.13
2023-02-17T19:30:15.219Z,14.90
2023-02-17T19:32:44.946Z,13.25
2023-02-17T19:35:13.229Z,13.30
2023-02-17T19:37:41.648Z,13.07
2023-02-17T19:40:10.902Z,14.20
2023-02-17T19:42:40.225Z,13.40
2023-02-17T19:45:10.460Z,13.27
2023-02-17T19:47:39.234Z,11.45
2023-02-17T19:50:08.731Z,11.95
2023-02-17T19:52:38.427Z,12.23
2023-02-17T19:55:07.490Z,13.63
2023-02-17T19:57:35.703Z,11.80
2023-02-17T20:00:04.343Z,11.18
2023-02-17T20:02:34.341Z,12.35
2023-02-17T20:05:02.846Z,15.40
2023-02-17T20:07:31.807Z,12.68
2023-02-17T20:10:00.398Z,12.48
2023-02-17T20:12:28.700Z,12.45
2023-02-17T20:14:57.588Z,12.10
2023-02-17T20:17:26.144Z,11.07
2023-02-17T20:19:55.745Z,11.10
2023-02-17T20:22:24.198Z,12.80
2023-02-17T20:24:52.564Z,11.93
2023-02-17T20:27:20.812Z,13.00
2023-02-17T20:29:49.025Z,11.32
2023-02-17T20:32:17.666Z,12.23
2023-02-17T20:34:45.974Z,13.25
2023-02-17T20:37:15.652Z,12.63
2023-02-17T20:39:44.309Z,12.20
2023-02-17T20:42:12.843Z,13.40
2023-02-17T20:44:41.074Z,13.27
2023-02-17T20:47:09.776Z,13.05
2023-02-17T20:49:38.116Z,13.70
2023-02-17T20:52:06.916Z,12.65
2023-02-17T20:54:39.281Z,14.13
2023-02-17T20:57:14.824Z,14.55
2023-02-17T20:59:43.386Z,13.95
2023-02-17T21:02:12.764Z,13.20
2023-02-17T21:04:41.066Z,14.63
2023-02-17T21:07:11.097Z,13.80
2023-02-17T21:09:41.031Z,16.95
2023-02-17T21:12:09.515Z,15.50
2023-02-17T21:14:37.956Z,15.68
2023-02-17T21:17:06.596Z,17.67
2023-02-17T21:19:34.870Z,16.25
2023-02-17T21:22:03.885Z,15.27
2023-02-17T21:24:32.029Z,16.73
2023-02-17T21:27:01.651Z,18.13
2023-02-17T21:29:30.304Z,16.98
2023-02-17T21:31:58.640Z,15.75
2023-02-17T21:34:27.018Z,17.20
2023-02-17T21:36:55.725Z,18.05
2023-02-17T21:39:23.950Z,18.85
2023-02-17T21:41:53.964Z,19.73
2023-02-17T21:44:40.945Z,18.27
2023-02-17T21:47:09.257Z,19.05
2023-02-17T21:49:37.737Z,16.90
2023-02-17T21:52:06.656Z,17.23
2023-02-17T21:54:35.061Z,17.10
2023-02-17T21:57:04.421Z,17.15
2023-02-17T21:59:34.542Z,19.70
2023-02-17T22:02:02.886Z,18.95
2023-02-17T22:04:31.267Z,20.05
2023-02-17T22:06:59.638Z,21.60
2023-02-17T22:09:27.905Z,22.30
2023-02-17T22:11:56.754Z,22.10
2023-02-17T22:14:25.098Z,19.05
2023-02-17T22:16:54.772Z,23.17
2023-02-17T22:19:24.722Z,20.60
2023-02-17T22:21:53.851Z,22.52
2023-02-17T22:24:22.214Z,22.58
2023-02-17T22:26:51.155Z,24.23
2023-02-17T22:29:19.541Z,22.17
2023-02-17T22:31:50.348Z,21.38
2023-02-17T22:34:20.519Z,22.17
2023-02-17T22:36:48.792Z,21.33
2023-02-17T22:39:17.218Z,22.00
2023-02-17T22:41:45.649Z,23.00
2023-02-17T22:44:14.255Z,24.25
2023-02-17T22:46:42.595Z,21.63
2023-02-17T22:49:11.258Z,21.88
2023-02-17T22:51:42.019Z,23.35
2023-02-17T22:54:10.809Z,20.23
2023-02-17T22:56:39.534Z,21.80
2023-02-17T22:59:07.905Z,21.40
2023-02-17T23:01:37.473Z,19.50
2023-02-17T23:04:06.873Z,21.20
2023-02-17T23:06:38.244Z,18.83
2023-02-17T23:09:09.615Z,19.33
2023-02-17T23:11:53.952Z,19.40
2023-02-17T23:14:25.938Z,20.70
2023-02-17T23:16:55.946Z,21.77
2023-02-17T23:19:24.923Z,18.73
2023-02-17T23:21:56.159Z,22.83
2023-02-17T23:24:27.534Z,20.02
2023-02-17T23:26:57.230Z,19.65
2023-02-17T23:29:25.790Z,19.08
2023-02-17T23:31:54.080Z,18.50
2023-02-17T23:34:22.392Z,18.30
2023-02-17T23:36:50.832Z,18.13
2023-02-17T23:39:19.316Z,19.73
2023-02-17T23:41:49.198Z,16.70
2023-02-17T23:44:17.997Z,18.00
2023-02-17T23:46:47.418Z,19.55
2023-02-17T23:49:17.633Z,18.17
2023-02-17T23:51:46.896Z,21.40
2023-02-17T23:54:16.350Z,22.58
2023-02-17T23:56:44.959Z,21.05
2023-02-17T23:59:14.743Z,21.35
